sensor_id;sensor_type;location;lat;lon;timestamp;P1;durP1;ratioP1;P2;durP2;ratioP2
23228;SDS011;11783;50.350;6.576;2022-10-01T00:00:56;7.78;;;5.07;;
23228;SDS011;11783;50.350;6.576;2022-10-01T00:03:23;9.13;;;4.78;;
23228;SDS011;11783;50.350;6.576;2022-10-01T00:05:59;7.40;;;4.45;;
23228;SDS011;11783;50.350;6.576;2022-10-01T00:08:39;5.78;;;4.55;;
23228;SDS011;11783;50.350;6.576;2022-10-01T00:11:09;7.90;;;4.80;;
23228;SDS011;11783;50.350;6.576;2022-10-01T00:13:38;7.32;;;4.88;;
23228;SDS011;11783;50.350;6.576;2022-10-01T00:16:06;7.10;;;4.68;;
23228;SDS011;11783;50.350;6.576;2022-10-01T00:18:35;8.57;;;5.32;;
23228;SDS011;11783;50.350;6.576;2022-10-01T00:21:04;8.85;;;5.18;;
23228;SDS011;11783;50.350;6.576;2022-10-01T00:23:31;8.73;;;4.60;;
23228;SDS011;11783;50.350;6.576;2022-10-01T00:26:06;7.68;;;4.80;;
23228;SDS011;11783;50.350;6.576;2022-10-01T00:28:36;6.53;;;5.18;;
23228;SDS011;11783;50.350;6.576;2022-10-01T00:31:02;8.48;;;5.50;;
23228;SDS011;11783;50.350;6.576;2022-10-01T00:33:27;7.47;;;5.60;;
23228;SDS011;11783;50.350;6.576;2022-10-01T00:35:53;7.32;;;5.47;;
23228;SDS011;11783;50.350;6.576;2022-10-01T00:38:18;9.15;;;5.90;;
23228;SDS011;11783;50.350;6.576;2022-10-01T00:40:44;9.95;;;5.85;;
23228;SDS011;11783;50.350;6.576;2022-10-01T00:43:19;8.70;;;5.65;;
23228;SDS011;11783;50.350;6.576;2022-10-01T00:45:45;10.63;;;5.88;;
23228;SDS011;11783;50.350;6.576;2022-10-01T00:48:11;8.88;;;6.03;;
23228;SDS011;11783;50.350;6.576;2022-10-01T00:50:37;11.27;;;6.47;;
23228;SDS011;11783;50.350;6.576;2022-10-01T00:53:04;10.90;;;6.45;;
23228;SDS011;11783;50.350;6.576;2022-10-01T00:55:33;9.95;;;6.72;;
23228;SDS011;11783;50.350;6.576;2022-10-01T00:58:04;8.75;;;6.55;;
23228;SDS011;11783;50.350;6.576;2022-10-01T01:00:33;8.77;;;6.90;;
23228;SDS011;11783;50.350;6.576;2022-10-01T01:03:00;10.25;;;7.15;;
23228;SDS011;11783;50.350;6.576;2022-10-01T01:05:26;11.38;;;7.38;;
23228;SDS011;11783;50.350;6.576;2022-10-01T01:07:51;12.13;;;7.43;;
23228;SDS011;11783;50.350;6.576;2022-10-01T01:10:20;9.88;;;6.90;;
23228;SDS011;11783;50.350;6.576;2022-10-01T01:12:57;10.68;;;7.13;;
23228;SDS011;11783;50.350;6.576;2022-10-01T01:22:49;11.07;;;7.50;;
23228;SDS011;11783;50.350;6.576;2022-10-01T01:25:47;11.18;;;7.30;;
23228;SDS011;11783;50.350;6.576;2022-10-01T01:28:30;9.43;;;7.13;;
23228;SDS011;11783;50.350;6.576;2022-10-01T01:31:02;11.43;;;7.55;;
23228;SDS011;11783;50.350;6.576;2022-10-01T01:33:32;10.65;;;7.60;;
23228;SDS011;11783;50.350;6.576;2022-10-01T01:36:02;10.35;;;7.10;;
23228;SDS011;11783;50.350;6.576;2022-10-01T01:38:33;8.02;;;5.72;;
23228;SDS011;11783;50.350;6.576;2022-10-01T01:41:03;13.02;;;7.97;;
23228;SDS011;11783;50.350;6.576;2022-10-01T01:43:31;10.32;;;7.22;;
23228;SDS011;11783;50.350;6.576;2022-10-01T01:46:01;10.27;;;7.78;;
23228;SDS011;11783;50.350;6.576;2022-10-01T01:48:30;9.48;;;7.30;;
23228;SDS011;11783;50.350;6.576;2022-10-01T01:51:04;10.20;;;8.07;;
23228;SDS011;11783;50.350;6.576;2022-10-01T01:53:35;13.70;;;8.93;;
23228;SDS011;11783;50.350;6.576;2022-10-01T01:56:01;11.00;;;8.35;;
23228;SDS011;11783;50.350;6.576;2022-10-01T01:58:27;10.70;;;7.80;;
23228;SDS011;11783;50.350;6.576;2022-10-01T02:00:53;11.15;;;7.75;;
23228;SDS011;11783;50.350;6.576;2022-10-01T02:03:30;9.82;;;7.35;;
23228;SDS011;11783;50.350;6.576;2022-10-01T02:12:00;9.43;;;6.80;;
23228;SDS011;11783;50.350;6.576;2022-10-01T02:14:50;10.70;;;6.70;;
23228;SDS011;11783;50.350;6.576;2022-10-01T02:20:07;9.85;;;7.00;;
23228;SDS011;11783;50.350;6.576;2022-10-01T02:22:47;7.88;;;6.00;;
23228;SDS011;11783;50.350;6.576;2022-10-01T02:25:18;7.22;;;5.60;;
23228;SDS011;11783;50.350;6.576;2022-10-01T02:27:52;11.35;;;6.30;;
23228;SDS011;11783;50.350;6.576;2022-10-01T02:30:31;10.65;;;6.70;;
23228;SDS011;11783;50.350;6.576;2022-10-01T02:32:59;8.35;;;6.65;;
23228;SDS011;11783;50.350;6.576;2022-10-01T02:35:28;8.82;;;6.22;;
23228;SDS011;11783;50.350;6.576;2022-10-01T02:37:56;7.60;;;5.63;;
23228;SDS011;11783;50.350;6.576;2022-10-01T02:40:26;9.23;;;5.78;;
23228;SDS011;11783;50.350;6.576;2022-10-01T02:42:56;7.80;;;5.75;;
23228;SDS011;11783;50.350;6.576;2022-10-01T02:45:26;7.97;;;5.30;;
23228;SDS011;11783;50.350;6.576;2022-10-01T02:47:57;9.05;;;5.10;;
23228;SDS011;11783;50.350;6.576;2022-10-01T02:50:31;6.40;;;4.93;;
23228;SDS011;11783;50.350;6.576;2022-10-01T02:53:08;8.60;;;5.40;;
23228;SDS011;11783;50.350;6.576;2022-10-01T02:55:40;7.22;;;5.25;;
23228;SDS011;11783;50.350;6.576;2022-10-01T02:58:08;6.63;;;5.38;;
23228;SDS011;11783;50.350;6.576;2022-10-01T03:00:34;7.25;;;4.68;;
23228;SDS011;11783;50.350;6.576;2022-10-01T03:02:59;6.32;;;4.45;;
23228;SDS011;11783;50.350;6.576;2022-10-01T03:05:25;7.53;;;4.18;;
23228;SDS011;11783;50.350;6.576;2022-10-01T03:07:53;7.82;;;4.43;;
23228;SDS011;11783;50.350;6.576;2022-10-01T03:10:18;5.53;;;3.85;;
23228;SDS011;11783;50.350;6.576;2022-10-01T03:12:44;6.38;;;3.90;;
23228;SDS011;11783;50.350;6.576;2022-10-01T03:15:14;5.03;;;3.58;;
23228;SDS011;11783;50.350;6.576;2022-10-01T03:17:45;4.70;;;3.47;;
23228;SDS011;11783;50.350;6.576;2022-10-01T03:20:14;5.35;;;3.40;;
23228;SDS011;11783;50.350;6.576;2022-10-01T03:22:39;5.78;;;3.30;;
23228;SDS011;11783;50.350;6.576;2022-10-01T03:25:05;4.05;;;2.85;;
23228;SDS011;11783;50.350;6.576;2022-10-01T03:27:30;5.40;;;2.90;;
23228;SDS011;11783;50.350;6.576;2022-10-01T03:29:56;4.10;;;2.63;;
23228;SDS011;11783;50.350;6.576;2022-10-01T03:32:21;4.10;;;2.40;;
23228;SDS011;11783;50.350;6.576;2022-10-01T03:34:47;4.40;;;2.20;;
23228;SDS011;11783;50.350;6.576;2022-10-01T03:37:12;4.75;;;2.60;;
23228;SDS011;11783;50.350;6.576;2022-10-01T03:39:38;3.30;;;2.15;;
23228;SDS011;11783;50.350;6.576;2022-10-01T03:42:03;4.72;;;1.98;;
23228;SDS011;11783;50.350;6.576;2022-10-01T03:44:30;3.42;;;1.75;;
23228;SDS011;11783;50.350;6.576;2022-10-01T03:46:55;3.83;;;1.90;;
23228;SDS011;11783;50.350;6.576;2022-10-01T03:49:21;2.65;;;1.55;;
23228;SDS011;11783;50.350;6.576;2022-10-01T03:51:47;3.20;;;1.70;;
23228;SDS011;11783;50.350;6.576;2022-10-01T03:54:12;3.80;;;1.50;;
23228;SDS011;11783;50.350;6.576;2022-10-01T03:56:38;2.47;;;1.48;;
23228;SDS011;11783;50.350;6.576;2022-10-01T03:59:09;2.13;;;1.20;;
23228;SDS011;11783;50.350;6.576;2022-10-01T04:01:40;2.65;;;1.20;;
23228;SDS011;11783;50.350;6.576;2022-10-01T04:04:31;2.22;;;1.10;;
23228;SDS011;11783;50.350;6.576;2022-10-01T04:07:06;2.03;;;1.20;;
23228;SDS011;11783;50.350;6.576;2022-10-01T04:09:31;1.92;;;1.00;;
23228;SDS011;11783;50.350;6.576;2022-10-01T04:11:56;2.17;;;1.08;;
23228;SDS011;11783;50.350;6.576;2022-10-01T04:14:24;1.92;;;1.00;;
23228;SDS011;11783;50.350;6.576;2022-10-01T04:16:50;1.50;;;0.90;;
23228;SDS011;11783;50.350;6.576;2022-10-01T04:19:18;1.50;;;0.70;;
23228;SDS011;11783;50.350;6.576;2022-10-01T04:21:44;1.42;;;0.80;;
23228;SDS011;11783;50.350;6.576;2022-10-01T04:24:09;5.03;;;0.90;;
23228;SDS011;11783;50.350;6.576;2022-10-01T04:26:34;7.60;;;0.98;;
23228;SDS011;11783;50.350;6.576;2022-10-01T04:29:00;1.38;;;0.63;;
23228;SDS011;11783;50.350;6.576;2022-10-01T04:31:27;1.85;;;0.60;;
23228;SDS011;11783;50.350;6.576;2022-10-01T04:33:58;2.90;;;0.70;;
23228;SDS011;11783;50.350;6.576;2022-10-01T04:36:25;2.75;;;0.60;;
23228;SDS011;11783;50.350;6.576;2022-10-01T04:38:52;1.58;;;0.50;;
23228;SDS011;11783;50.350;6.576;2022-10-01T04:41:19;0.80;;;0.50;;
23228;SDS011;11783;50.350;6.576;2022-10-01T04:43:51;1.20;;;0.50;;
23228;SDS011;11783;50.350;6.576;2022-10-01T04:46:16;0.43;;;0.40;;
23228;SDS011;11783;50.350;6.576;2022-10-01T04:48:42;0.77;;;0.47;;
23228;SDS011;11783;50.350;6.576;2022-10-01T04:51:07;2.50;;;0.60;;
23228;SDS011;11783;50.350;6.576;2022-10-01T04:53:33;2.45;;;0.55;;
23228;SDS011;11783;50.350;6.576;2022-10-01T04:55:58;2.97;;;0.65;;
23228;SDS011;11783;50.350;6.576;2022-10-01T04:58:25;1.85;;;0.63;;
23228;SDS011;11783;50.350;6.576;2022-10-01T05:00:50;2.33;;;0.52;;
23228;SDS011;11783;50.350;6.576;2022-10-01T05:03:16;1.00;;;0.47;;
23228;SDS011;11783;50.350;6.576;2022-10-01T05:05:42;1.45;;;0.50;;
23228;SDS011;11783;50.350;6.576;2022-10-01T05:08:07;1.20;;;0.70;;
23228;SDS011;11783;50.350;6.576;2022-10-01T05:10:33;2.30;;;0.65;;
23228;SDS011;11783;50.350;6.576;2022-10-01T05:12:59;1.77;;;0.47;;
23228;SDS011;11783;50.350;6.576;2022-10-01T05:15:26;1.65;;;0.52;;
23228;SDS011;11783;50.350;6.576;2022-10-01T05:17:52;0.60;;;0.40;;
23228;SDS011;11783;50.350;6.576;2022-10-01T05:20:18;2.22;;;0.50;;
23228;SDS011;11783;50.350;6.576;2022-10-01T05:22:46;1.85;;;0.50;;
23228;SDS011;11783;50.350;6.576;2022-10-01T05:25:13;1.85;;;0.50;;
23228;SDS011;11783;50.350;6.576;2022-10-01T05:27:40;0.70;;;0.30;;
23228;SDS011;11783;50.350;6.576;2022-10-01T05:30:07;0.75;;;0.30;;
23228;SDS011;11783;50.350;6.576;2022-10-01T05:32:33;0.40;;;0.30;;
23228;SDS011;11783;50.350;6.576;2022-10-01T05:34:59;4.80;;;0.40;;
23228;SDS011;11783;50.350;6.576;2022-10-01T05:37:24;1.48;;;0.30;;
23228;SDS011;11783;50.350;6.576;2022-10-01T05:39:50;0.68;;;0.52;;
23228;SDS011;11783;50.350;6.576;2022-10-01T05:42:15;0.68;;;0.30;;
23228;SDS011;11783;50.350;6.576;2022-10-01T05:44:40;2.03;;;0.30;;
23228;SDS011;11783;50.350;6.576;2022-10-01T05:47:10;1.92;;;0.40;;
23228;SDS011;11783;50.350;6.576;2022-10-01T05:49:37;0.68;;;0.30;;
23228;SDS011;11783;50.350;6.576;2022-10-01T05:52:06;0.85;;;0.38;;
23228;SDS011;11783;50.350;6.576;2022-10-01T05:54:32;0.40;;;0.20;;
23228;SDS011;11783;50.350;6.576;2022-10-01T05:56:58;2.08;;;0.40;;
23228;SDS011;11783;50.350;6.576;2022-10-01T05:59:23;0.20;;;0.20;;
23228;SDS011;11783;50.350;6.576;2022-10-01T06:01:53;0.88;;;0.30;;
23228;SDS011;11783;50.350;6.576;2022-10-01T06:04:23;2.03;;;0.28;;
23228;SDS011;11783;50.350;6.576;2022-10-01T06:06:49;0.73;;;0.30;;
23228;SDS011;11783;50.350;6.576;2022-10-01T06:09:14;0.30;;;0.30;;
23228;SDS011;11783;50.350;6.576;2022-10-01T06:11:40;0.47;;;0.30;;
23228;SDS011;11783;50.350;6.576;2022-10-01T06:14:05;0.95;;;0.30;;
23228;SDS011;11783;50.350;6.576;2022-10-01T06:16:31;0.85;;;0.30;;
23228;SDS011;11783;50.350;6.576;2022-10-01T06:18:56;0.20;;;0.20;;
23228;SDS011;11783;50.350;6.576;2022-10-01T06:21:23;0.40;;;0.20;;
23228;SDS011;11783;50.350;6.576;2022-10-01T06:23:49;1.27;;;0.30;;
23228;SDS011;11783;50.350;6.576;2022-10-01T06:26:15;0.35;;;0.30;;
23228;SDS011;11783;50.350;6.576;2022-10-01T06:28:41;1.08;;;0.30;;
23228;SDS011;11783;50.350;6.576;2022-10-01T06:31:07;1.80;;;0.40;;
23228;SDS011;11783;50.350;6.576;2022-10-01T06:33:32;1.38;;;0.38;;
23228;SDS011;11783;50.350;6.576;2022-10-01T06:35:57;0.75;;;0.30;;
23228;SDS011;11783;50.350;6.576;2022-10-01T06:38:23;0.43;;;0.30;;
23228;SDS011;11783;50.350;6.576;2022-10-01T06:40:56;1.05;;;0.30;;
23228;SDS011;11783;50.350;6.576;2022-10-01T06:43:23;0.90;;;0.30;;
23228;SDS011;11783;50.350;6.576;2022-10-01T06:45:49;0.82;;;0.32;;
23228;SDS011;11783;50.350;6.576;2022-10-01T06:48:19;0.63;;;0.25;;
23228;SDS011;11783;50.350;6.576;2022-10-01T06:51:06;0.35;;;0.25;;
23228;SDS011;11783;50.350;6.576;2022-10-01T06:53:32;0.50;;;0.30;;
23228;SDS011;11783;50.350;6.576;2022-10-01T06:56:07;0.63;;;0.30;;
23228;SDS011;11783;50.350;6.576;2022-10-01T06:58:34;0.32;;;0.30;;
23228;SDS011;11783;50.350;6.576;2022-10-01T07:01:14;1.48;;;0.80;;
23228;SDS011;11783;50.350;6.576;2022-10-01T07:03:44;0.85;;;0.35;;
23228;SDS011;11783;50.350;6.576;2022-10-01T07:06:10;0.52;;;0.38;;
23228;SDS011;11783;50.350;6.576;2022-10-01T07:08:36;0.80;;;0.35;;
23228;SDS011;11783;50.350;6.576;2022-10-01T07:11:02;0.47;;;0.25;;
23228;SDS011;11783;50.350;6.576;2022-10-01T07:13:27;0.50;;;0.30;;
23228;SDS011;11783;50.350;6.576;2022-10-01T07:15:53;0.60;;;0.40;;
23228;SDS011;11783;50.350;6.576;2022-10-01T07:18:18;0.73;;;0.30;;
23228;SDS011;11783;50.350;6.576;2022-10-01T07:20:43;1.77;;;0.30;;
23228;SDS011;11783;50.350;6.576;2022-10-01T07:23:12;0.22;;;0.22;;
23228;SDS011;11783;50.350;6.576;2022-10-01T07:25:39;0.55;;;0.40;;
23228;SDS011;11783;50.350;6.576;2022-10-01T07:28:06;0.77;;;0.30;;
23228;SDS011;11783;50.350;6.576;2022-10-01T07:30:39;0.77;;;0.40;;
23228;SDS011;11783;50.350;6.576;2022-10-01T07:33:05;0.45;;;0.35;;
23228;SDS011;11783;50.350;6.576;2022-10-01T07:35:31;0.50;;;0.28;;
23228;SDS011;11783;50.350;6.576;2022-10-01T07:38:10;0.20;;;0.20;;
23228;SDS011;11783;50.350;6.576;2022-10-01T07:40:35;0.70;;;0.20;;
23228;SDS011;11783;50.350;6.576;2022-10-01T07:43:01;0.98;;;0.40;;
23228;SDS011;11783;50.350;6.576;2022-10-01T07:45:26;0.20;;;0.20;;
23228;SDS011;11783;50.350;6.576;2022-10-01T07:47:55;0.57;;;0.30;;
23228;SDS011;11783;50.350;6.576;2022-10-01T07:50:24;0.20;;;0.20;;
23228;SDS011;11783;50.350;6.576;2022-10-01T07:53:02;0.55;;;0.30;;
23228;SDS011;11783;50.350;6.576;2022-10-01T07:55:28;0.35;;;0.20;;
23228;SDS011;11783;50.350;6.576;2022-10-01T07:57:57;0.32;;;0.20;;
23228;SDS011;11783;50.350;6.576;2022-10-01T08:00:26;1.90;;;0.25;;
23228;SDS011;11783;50.350;6.576;2022-10-01T08:02:54;0.30;;;0.30;;
23228;SDS011;11783;50.350;6.576;2022-10-01T08:05:21;0.47;;;0.30;;
23228;SDS011;11783;50.350;6.576;2022-10-01T08:07:48;0.50;;;0.30;;
23228;SDS011;11783;50.350;6.576;2022-10-01T08:10:14;0.35;;;0.30;;
23228;SDS011;11783;50.350;6.576;2022-10-01T08:12:41;0.93;;;0.30;;
23228;SDS011;11783;50.350;6.576;2022-10-01T08:15:12;1.15;;;0.40;;
23228;SDS011;11783;50.350;6.576;2022-10-01T08:17:39;0.75;;;0.30;;
23228;SDS011;11783;50.350;6.576;2022-10-01T08:20:05;0.32;;;0.32;;
23228;SDS011;11783;50.350;6.576;2022-10-01T08:22:32;0.28;;;0.20;;
23228;SDS011;11783;50.350;6.576;2022-10-01T08:24:57;1.70;;;0.40;;
23228;SDS011;11783;50.350;6.576;2022-10-01T08:27:23;0.40;;;0.30;;
23228;SDS011;11783;50.350;6.576;2022-10-01T08:29:49;0.85;;;0.30;;
23228;SDS011;11783;50.350;6.576;2022-10-01T08:32:15;0.45;;;0.22;;
23228;SDS011;11783;50.350;6.576;2022-10-01T08:34:40;1.05;;;0.60;;
23228;SDS011;11783;50.350;6.576;2022-10-01T08:37:06;0.57;;;0.30;;
23228;SDS011;11783;50.350;6.576;2022-10-01T08:39:31;1.95;;;0.80;;
23228;SDS011;11783;50.350;6.576;2022-10-01T08:42:12;0.50;;;0.30;;
23228;SDS011;11783;50.350;6.576;2022-10-01T08:44:46;2.20;;;0.40;;
23228;SDS011;11783;50.350;6.576;2022-10-01T08:47:14;0.70;;;0.35;;
23228;SDS011;11783;50.350;6.576;2022-10-01T08:49:57;1.10;;;0.47;;
23228;SDS011;11783;50.350;6.576;2022-10-01T08:52:41;1.27;;;0.63;;
23228;SDS011;11783;50.350;6.576;2022-10-01T08:55:20;1.80;;;0.50;;
23228;SDS011;11783;50.350;6.576;2022-10-01T08:57:49;1.38;;;0.60;;
23228;SDS011;11783;50.350;6.576;2022-10-01T09:00:18;3.97;;;0.60;;
23228;SDS011;11783;50.350;6.576;2022-10-01T09:02:44;1.92;;;0.80;;
23228;SDS011;11783;50.350;6.576;2022-10-01T09:10:44;1.75;;;0.85;;
23228;SDS011;11783;50.350;6.576;2022-10-01T09:15:50;2.17;;;0.70;;
23228;SDS011;11783;50.350;6.576;2022-10-01T09:22:03;2.87;;;0.80;;
23228;SDS011;11783;50.350;6.576;2022-10-01T09:24:52;5.95;;;1.00;;
23228;SDS011;11783;50.350;6.576;2022-10-01T09:27:31;5.65;;;1.70;;
23228;SDS011;11783;50.350;6.576;2022-10-01T09:30:05;6.32;;;1.45;;
23228;SDS011;11783;50.350;6.576;2022-10-01T09:32:36;7.65;;;1.70;;
23228;SDS011;11783;50.350;6.576;2022-10-01T09:35:28;8.40;;;1.77;;
23228;SDS011;11783;50.350;6.576;2022-10-01T09:38:23;9.63;;;1.85;;
23228;SDS011;11783;50.350;6.576;2022-10-01T09:41:02;6.35;;;1.73;;
23228;SDS011;11783;50.350;6.576;2022-10-01T09:43:28;11.65;;;2.00;;
23228;SDS011;11783;50.350;6.576;2022-10-01T09:45:57;5.35;;;1.70;;
23228;SDS011;11783;50.350;6.576;2022-10-01T09:51:15;8.48;;;1.70;;
23228;SDS011;11783;50.350;6.576;2022-10-01T09:53:50;8.43;;;1.60;;
23228;SDS011;11783;50.350;6.576;2022-10-01T09:56:20;10.13;;;2.00;;
23228;SDS011;11783;50.350;6.576;2022-10-01T09:58:53;6.30;;;1.80;;
23228;SDS011;11783;50.350;6.576;2022-10-01T10:04:05;8.25;;;1.85;;
23228;SDS011;11783;50.350;6.576;2022-10-01T10:06:42;9.07;;;2.20;;
23228;SDS011;11783;50.350;6.576;2022-10-01T10:09:31;13.77;;;2.25;;
23228;SDS011;11783;50.350;6.576;2022-10-01T10:12:01;6.78;;;1.70;;
23228;SDS011;11783;50.350;6.576;2022-10-01T10:14:35;9.07;;;2.20;;
23228;SDS011;11783;50.350;6.576;2022-10-01T10:17:05;7.32;;;2.10;;
23228;SDS011;11783;50.350;6.576;2022-10-01T10:19:36;9.23;;;2.00;;
23228;SDS011;11783;50.350;6.576;2022-10-01T10:22:09;6.88;;;1.98;;
23228;SDS011;11783;50.350;6.576;2022-10-01T10:24:36;7.72;;;2.38;;
23228;SDS011;11783;50.350;6.576;2022-10-01T10:27:03;8.18;;;2.60;;
23228;SDS011;11783;50.350;6.576;2022-10-01T10:29:31;9.13;;;2.00;;
23228;SDS011;11783;50.350;6.576;2022-10-01T10:34:51;12.52;;;2.30;;
23228;SDS011;11783;50.350;6.576;2022-10-01T10:37:31;7.78;;;1.90;;
23228;SDS011;11783;50.350;6.576;2022-10-01T10:40:00;5.90;;;1.85;;
23228;SDS011;11783;50.350;6.576;2022-10-01T10:42:28;13.77;;;2.58;;
23228;SDS011;11783;50.350;6.576;2022-10-01T10:44:54;7.72;;;1.65;;
23228;SDS011;11783;50.350;6.576;2022-10-01T10:47:25;9.35;;;1.40;;
23228;SDS011;11783;50.350;6.576;2022-10-01T10:49:56;8.43;;;1.77;;
23228;SDS011;11783;50.350;6.576;2022-10-01T10:52:34;8.48;;;1.90;;
23228;SDS011;11783;50.350;6.576;2022-10-01T10:55:21;7.00;;;1.50;;
23228;SDS011;11783;50.350;6.576;2022-10-01T10:57:52;6.25;;;1.65;;
23228;SDS011;11783;50.350;6.576;2022-10-01T11:00:19;8.10;;;1.60;;
23228;SDS011;11783;50.350;6.576;2022-10-01T11:02:54;9.93;;;1.73;;
23228;SDS011;11783;50.350;6.576;2022-10-01T11:05:24;7.78;;;1.90;;
23228;SDS011;11783;50.350;6.576;2022-10-01T11:07:54;11.93;;;1.75;;
23228;SDS011;11783;50.350;6.576;2022-10-01T11:13:05;8.32;;;1.75;;
23228;SDS011;11783;50.350;6.576;2022-10-01T11:20:40;6.53;;;1.75;;
23228;SDS011;11783;50.350;6.576;2022-10-01T11:26:11;7.88;;;1.63;;
23228;SDS011;11783;50.350;6.576;2022-10-01T11:34:36;9.32;;;2.60;;
23228;SDS011;11783;50.350;6.576;2022-10-01T11:40:26;11.38;;;2.00;;
23228;SDS011;11783;50.350;6.576;2022-10-01T11:42:58;9.52;;;2.10;;
23228;SDS011;11783;50.350;6.576;2022-10-01T11:45:34;10.50;;;2.25;;
23228;SDS011;11783;50.350;6.576;2022-10-01T11:48:07;9.75;;;2.45;;
23228;SDS011;11783;50.350;6.576;2022-10-01T11:50:42;12.70;;;2.35;;
23228;SDS011;11783;50.350;6.576;2022-10-01T11:53:32;7.83;;;1.67;;
23228;SDS011;11783;50.350;6.576;2022-10-01T11:56:03;9.65;;;2.25;;
23228;SDS011;11783;50.350;6.576;2022-10-01T11:59:12;12.07;;;1.95;;
23228;SDS011;11783;50.350;6.576;2022-10-01T12:01:48;7.95;;;2.08;;
23228;SDS011;11783;50.350;6.576;2022-10-01T12:07:00;7.85;;;1.55;;
23228;SDS011;11783;50.350;6.576;2022-10-01T12:12:15;6.68;;;1.80;;
23228;SDS011;11783;50.350;6.576;2022-10-01T12:14:48;7.00;;;1.60;;
23228;SDS011;11783;50.350;6.576;2022-10-01T12:17:25;7.90;;;1.55;;
23228;SDS011;11783;50.350;6.576;2022-10-01T12:19:57;6.10;;;1.58;;
23228;SDS011;11783;50.350;6.576;2022-10-01T12:22:26;10.07;;;2.15;;
23228;SDS011;11783;50.350;6.576;2022-10-01T12:24:56;8.00;;;1.58;;
23228;SDS011;11783;50.350;6.576;2022-10-01T12:40:24;11.63;;;1.98;;
23228;SDS011;11783;50.350;6.576;2022-10-01T12:53:22;10.50;;;1.90;;
23228;SDS011;11783;50.350;6.576;2022-10-01T13:01:32;12.20;;;1.67;;
23228;SDS011;11783;50.350;6.576;2022-10-01T13:04:52;10.55;;;1.85;;
23228;SDS011;11783;50.350;6.576;2022-10-01T13:10:06;10.13;;;1.98;;
23228;SDS011;11783;50.350;6.576;2022-10-01T13:13:00;8.52;;;2.17;;
23228;SDS011;11783;50.350;6.576;2022-10-01T13:15:33;9.32;;;1.83;;
23228;SDS011;11783;50.350;6.576;2022-10-01T13:18:08;10.60;;;2.10;;
23228;SDS011;11783;50.350;6.576;2022-10-01T13:20:57;11.00;;;2.30;;
23228;SDS011;11783;50.350;6.576;2022-10-01T13:26:25;12.13;;;2.28;;
23228;SDS011;11783;50.350;6.576;2022-10-01T13:31:50;8.55;;;1.73;;
23228;SDS011;11783;50.350;6.576;2022-10-01T13:36:51;7.88;;;1.90;;
23228;SDS011;11783;50.350;6.576;2022-10-01T13:39:23;9.63;;;2.20;;
23228;SDS011;11783;50.350;6.576;2022-10-01T13:44:24;8.70;;;1.65;;
23228;SDS011;11783;50.350;6.576;2022-10-01T13:47:04;15.15;;;1.80;;
23228;SDS011;11783;50.350;6.576;2022-10-01T13:49:32;12.27;;;1.92;;
23228;SDS011;11783;50.350;6.576;2022-10-01T13:52:00;11.23;;;1.90;;
23228;SDS011;11783;50.350;6.576;2022-10-01T13:54:37;11.30;;;1.70;;
23228;SDS011;11783;50.350;6.576;2022-10-01T13:57:30;8.18;;;1.65;;
23228;SDS011;11783;50.350;6.576;2022-10-01T13:59:57;12.70;;;2.00;;
23228;SDS011;11783;50.350;6.576;2022-10-01T14:02:33;9.30;;;1.90;;
23228;SDS011;11783;50.350;6.576;2022-10-01T14:05:14;11.05;;;3.00;;
23228;SDS011;11783;50.350;6.576;2022-10-01T14:07:58;11.90;;;2.05;;
23228;SDS011;11783;50.350;6.576;2022-10-01T14:10:33;11.27;;;1.90;;
23228;SDS011;11783;50.350;6.576;2022-10-01T14:13:24;12.15;;;1.85;;
23228;SDS011;11783;50.350;6.576;2022-10-01T14:16:09;11.88;;;2.15;;
23228;SDS011;11783;50.350;6.576;2022-10-01T14:18:37;11.20;;;2.30;;
23228;SDS011;11783;50.350;6.576;2022-10-01T14:27:09;12.82;;;2.15;;
23228;SDS011;11783;50.350;6.576;2022-10-01T14:29:47;11.48;;;2.03;;
23228;SDS011;11783;50.350;6.576;2022-10-01T14:37:38;10.95;;;2.10;;
23228;SDS011;11783;50.350;6.576;2022-10-01T14:40:15;13.55;;;2.40;;
23228;SDS011;11783;50.350;6.576;2022-10-01T14:42:42;13.20;;;2.15;;
23228;SDS011;11783;50.350;6.576;2022-10-01T14:45:15;10.57;;;2.17;;
23228;SDS011;11783;50.350;6.576;2022-10-01T14:47:42;14.40;;;2.42;;
23228;SDS011;11783;50.350;6.576;2022-10-01T14:50:11;10.25;;;3.20;;
23228;SDS011;11783;50.350;6.576;2022-10-01T14:52:44;10.95;;;2.25;;
23228;SDS011;11783;50.350;6.576;2022-10-01T14:55:13;11.43;;;1.90;;
23228;SDS011;11783;50.350;6.576;2022-10-01T14:57:45;10.98;;;2.35;;
23228;SDS011;11783;50.350;6.576;2022-10-01T15:00:21;7.68;;;1.30;;
23228;SDS011;11783;50.350;6.576;2022-10-01T15:03:09;11.00;;;2.20;;
23228;SDS011;11783;50.350;6.576;2022-10-01T15:05:42;10.70;;;1.60;;
23228;SDS011;11783;50.350;6.576;2022-10-01T15:10:45;9.05;;;1.90;;
23228;SDS011;11783;50.350;6.576;2022-10-01T15:13:31;10.02;;;1.98;;
23228;SDS011;11783;50.350;6.576;2022-10-01T15:15:59;6.22;;;1.58;;
23228;SDS011;11783;50.350;6.576;2022-10-01T15:18:26;13.48;;;1.85;;
23228;SDS011;11783;50.350;6.576;2022-10-01T15:20:56;9.13;;;2.40;;
23228;SDS011;11783;50.350;6.576;2022-10-01T15:23:26;8.05;;;1.83;;
23228;SDS011;11783;50.350;6.576;2022-10-01T15:25:53;11.25;;;2.22;;
23228;SDS011;11783;50.350;6.576;2022-10-01T15:28:28;10.05;;;2.47;;
23228;SDS011;11783;50.350;6.576;2022-10-01T15:30:55;12.45;;;2.00;;
23228;SDS011;11783;50.350;6.576;2022-10-01T15:33:28;18.75;;;2.53;;
23228;SDS011;11783;50.350;6.576;2022-10-01T15:35:58;13.27;;;2.72;;
23228;SDS011;11783;50.350;6.576;2022-10-01T15:38:27;7.13;;;1.80;;
23228;SDS011;11783;50.350;6.576;2022-10-01T15:40:55;8.07;;;1.80;;
23228;SDS011;11783;50.350;6.576;2022-10-01T15:49:09;8.98;;;2.38;;
23228;SDS011;11783;50.350;6.576;2022-10-01T15:54:29;11.52;;;2.40;;
23228;SDS011;11783;50.350;6.576;2022-10-01T15:56:55;10.93;;;2.10;;
23228;SDS011;11783;50.350;6.576;2022-10-01T15:59:21;6.53;;;1.70;;
23228;SDS011;11783;50.350;6.576;2022-10-01T16:01:46;12.18;;;2.88;;
23228;SDS011;11783;50.350;6.576;2022-10-01T16:04:12;10.18;;;2.83;;
23228;SDS011;11783;50.350;6.576;2022-10-01T16:06:39;12.48;;;3.25;;
23228;SDS011;11783;50.350;6.576;2022-10-01T16:09:12;14.63;;;2.80;;
23228;SDS011;11783;50.350;6.576;2022-10-01T16:17:14;18.38;;;3.30;;
23228;SDS011;11783;50.350;6.576;2022-10-01T16:19:37;13.23;;;2.63;;
23228;SDS011;11783;50.350;6.576;2022-10-01T16:22:12;12.63;;;2.60;;
23228;SDS011;11783;50.350;6.576;2022-10-01T16:29:59;12.60;;;2.80;;
23228;SDS011;11783;50.350;6.576;2022-10-01T16:32:31;9.15;;;2.40;;
23228;SDS011;11783;50.350;6.576;2022-10-01T16:37:50;11.30;;;2.80;;
23228;SDS011;11783;50.350;6.576;2022-10-01T16:40:17;11.45;;;2.60;;
23228;SDS011;11783;50.350;6.576;2022-10-01T16:42:45;14.27;;;2.85;;
23228;SDS011;11783;50.350;6.576;2022-10-01T16:45:15;11.20;;;3.08;;
23228;SDS011;11783;50.350;6.576;2022-10-01T16:47:52;14.70;;;2.88;;
23228;SDS011;11783;50.350;6.576;2022-10-01T16:50:20;11.57;;;2.67;;
23228;SDS011;11783;50.350;6.576;2022-10-01T16:52:46;13.05;;;2.50;;
23228;SDS011;11783;50.350;6.576;2022-10-01T16:55:16;11.70;;;2.40;;
23228;SDS011;11783;50.350;6.576;2022-10-01T16:57:46;13.25;;;3.00;;
23228;SDS011;11783;50.350;6.576;2022-10-01T17:00:15;11.15;;;2.75;;
23228;SDS011;11783;50.350;6.576;2022-10-01T17:02:42;10.25;;;2.60;;
23228;SDS011;11783;50.350;6.576;2022-10-01T17:05:13;10.40;;;3.10;;
23228;SDS011;11783;50.350;6.576;2022-10-01T17:07:42;13.05;;;3.28;;
23228;SDS011;11783;50.350;6.576;2022-10-01T17:10:09;14.07;;;3.60;;
23228;SDS011;11783;50.350;6.576;2022-10-01T17:12:35;11.02;;;2.83;;
23228;SDS011;11783;50.350;6.576;2022-10-01T17:15:01;12.23;;;2.95;;
23228;SDS011;11783;50.350;6.576;2022-10-01T17:17:26;12.98;;;2.67;;
23228;SDS011;11783;50.350;6.576;2022-10-01T17:19:52;9.60;;;3.03;;
23228;SDS011;11783;50.350;6.576;2022-10-01T17:22:17;11.73;;;2.60;;